createdAt,value
2018-02-12T00:00:54.897Z,2.90
2018-02-12T00:03:22.084Z,2.63
2018-02-12T00:05:48.792Z,3.03
2018-02-12T00:08:15.547Z,2.90
2018-02-12T00:10:42.524Z,2.90
2018-02-12T00:13:10.263Z,3.20
2018-02-12T00:15:37.115Z,4.10
2018-02-12T00:18:03.800Z,3.93
2018-02-12T00:20:30.657Z,3.77
2018-02-12T00:22:57.369Z,3.33
2018-02-12T00:25:25.400Z,3.73
2018-02-12T00:27:54.232Z,2.73
2018-02-12T00:30:20.934Z,3.40
2018-02-12T00:32:47.820Z,2.90
2018-02-12T00:35:14.827Z,2.60
2018-02-12T00:37:48.571Z,3.57
2018-02-12T00:40:16.292Z,3.80
2018-02-12T00:42:43.110Z,4.27
2018-02-12T00:45:09.938Z,2.87
2018-02-12T00:47:36.998Z,2.40
2018-02-12T00:50:03.765Z,2.70
2018-02-12T00:52:30.701Z,3.00
2018-02-12T00:54:57.721Z,2.60
2018-02-12T00:57:24.436Z,2.77
2018-02-12T00:59:51.232Z,2.63
2018-02-12T01:02:20.070Z,2.67
2018-02-12T01:04:48.080Z,2.90
2018-02-12T01:07:14.856Z,2.97
2018-02-12T01:09:41.546Z,2.90
2018-02-12T01:12:08.235Z,2.77
2018-02-12T01:14:35.732Z,3.10
2018-02-12T01:17:02.814Z,3.10
2018-02-12T01:19:29.719Z,3.00
2018-02-12T01:21:56.449Z,3.10
2018-02-12T01:24:23.209Z,2.47
2018-02-12T01:26:49.921Z,3.20
2018-02-12T01:29:16.628Z,2.37
2018-02-12T01:31:43.370Z,2.87
2018-02-12T01:34:10.171Z,2.57
2018-02-12T01:36:36.861Z,2.30
2018-02-12T01:39:03.617Z,2.27
2018-02-12T01:41:30.262Z,2.33
2018-02-12T01:43:56.928Z,2.20
2018-02-12T01:46:23.610Z,2.20
2018-02-12T01:48:50.295Z,2.50
2018-02-12T01:51:16.982Z,2.00
2018-02-12T01:53:43.656Z,2.10
2018-02-12T01:56:10.366Z,2.33
2018-02-12T01:58:37.077Z,1.83
2018-02-12T02:01:03.766Z,2.10
2018-02-12T02:03:30.470Z,1.93
2018-02-12T02:05:57.188Z,1.77
2018-02-12T02:08:23.888Z,1.73
2018-02-12T02:10:50.839Z,1.80
2018-02-12T02:13:17.533Z,1.93
2018-02-12T02:15:44.229Z,1.70
2018-02-12T02:18:10.982Z,2.00
2018-02-12T02:20:37.703Z,1.70
2018-02-12T02:23:04.423Z,2.20
2018-02-12T02:25:31.366Z,2.17
2018-02-12T02:27:58.069Z,2.40
2018-02-12T02:30:25.593Z,2.10
2018-02-12T02:32:52.331Z,1.90
2018-02-12T02:35:19.121Z,2.30
2018-02-12T02:37:45.811Z,1.90
2018-02-12T02:40:12.518Z,1.93
2018-02-12T02:42:39.218Z,1.80
2018-02-12T02:45:05.926Z,2.57
2018-02-12T02:47:32.597Z,2.80
2018-02-12T02:49:59.281Z,2.60
2018-02-12T02:52:25.990Z,2.40
2018-02-12T02:54:52.669Z,2.70
2018-02-12T02:57:19.354Z,2.40
2018-02-12T02:59:46.047Z,2.17
2018-02-12T03:02:12.802Z,2.80
2018-02-12T03:04:39.490Z,2.67
2018-02-12T03:07:06.237Z,2.30
2018-02-12T03:09:33.080Z,2.53
2018-02-12T03:11:59.790Z,2.60
2018-02-12T03:14:26.467Z,2.70
2018-02-12T03:16:53.173Z,2.33
2018-02-12T03:19:19.862Z,2.83
2018-02-12T03:21:46.577Z,2.53
2018-02-12T03:24:13.257Z,2.80
2018-02-12T03:26:40.004Z,2.20
2018-02-12T03:29:06.706Z,2.60
2018-02-12T03:31:33.411Z,2.77
2018-02-12T03:34:00.106Z,2.60
2018-02-12T03:36:26.822Z,2.23
2018-02-12T03:38:53.493Z,2.70
2018-02-12T03:41:20.205Z,2.00
2018-02-12T03:43:46.864Z,2.77
2018-02-12T03:46:13.539Z,2.47
2018-02-12T03:48:40.264Z,2.40
2018-02-12T03:51:06.950Z,2.60
2018-02-12T03:53:33.664Z,3.30
2018-02-12T03:56:00.357Z,3.03
2018-02-12T03:58:27.036Z,2.87
2018-02-12T04:00:53.745Z,3.30
2018-02-12T04:03:20.461Z,2.87
2018-02-12T04:05:47.161Z,3.03
2018-02-12T04:08:13.944Z,2.80
2018-02-12T04:10:40.617Z,3.10
2018-02-12T04:13:07.343Z,2.90
2018-02-12T04:15:34.034Z,3.17
2018-02-12T04:18:00.712Z,3.37
2018-02-12T04:20:27.409Z,3.07
2018-02-12T04:22:54.087Z,3.30
2018-02-12T04:25:20.762Z,2.90
2018-02-12T04:27:47.489Z,3.03
2018-02-12T04:30:14.212Z,2.90
2018-02-12T04:32:40.907Z,2.80
2018-02-12T04:35:07.580Z,3.37
2018-02-12T04:37:34.269Z,3.47
2018-02-12T04:40:00.945Z,2.63
2018-02-12T04:42:27.657Z,3.40
2018-02-12T04:44:54.443Z,3.00
2018-02-12T04:47:21.157Z,3.30
2018-02-12T04:49:47.829Z,3.17
2018-02-12T04:52:14.516Z,2.90
2018-02-12T04:54:41.200Z,3.40
2018-02-12T04:57:07.913Z,2.77
2018-02-12T04:59:34.622Z,3.40
2018-02-12T05:02:01.284Z,2.93
2018-02-12T05:04:28.098Z,3.20
2018-02-12T05:06:54.906Z,3.00
2018-02-12T05:09:21.569Z,3.07
2018-02-12T05:11:48.384Z,3.03
2018-02-12T05:14:15.091Z,3.07
2018-02-12T05:16:41.810Z,2.77
2018-02-12T05:19:08.471Z,3.13
2018-02-12T05:21:35.226Z,3.30
2018-02-12T05:24:01.910Z,2.83
2018-02-12T05:26:28.583Z,3.10
2018-02-12T05:28:55.326Z,3.80
2018-02-12T05:31:22.041Z,3.30
2018-02-12T05:33:48.780Z,2.80
2018-02-12T05:36:15.482Z,2.53
2018-02-12T05:38:42.225Z,2.77
2018-02-12T05:41:08.881Z,2.60
2018-02-12T05:43:35.566Z,3.50
2018-02-12T05:46:02.392Z,3.20
2018-02-12T05:48:29.226Z,3.10
2018-02-12T05:50:55.954Z,2.83
2018-02-12T05:53:22.647Z,3.10
2018-02-12T05:55:49.341Z,3.03
2018-02-12T05:58:16.030Z,3.17
2018-02-12T06:00:42.690Z,3.43
2018-02-12T06:03:09.390Z,3.10
2018-02-12T06:05:36.056Z,3.10
2018-02-12T06:08:02.746Z,2.73
2018-02-12T06:10:29.449Z,3.20
2018-02-12T06:12:56.210Z,3.20
2018-02-12T06:15:23.025Z,2.93
2018-02-12T06:17:49.691Z,3.20
2018-02-12T06:20:16.390Z,2.97
2018-02-12T06:22:43.068Z,3.77
2018-02-12T06:25:09.746Z,2.87
2018-02-12T06:27:36.442Z,3.40
2018-02-12T06:30:03.194Z,3.20
2018-02-12T06:32:29.949Z,3.30
2018-02-12T06:34:56.728Z,3.57
2018-02-12T06:37:23.495Z,4.03
2018-02-12T06:39:50.180Z,3.30
2018-02-12T06:42:16.872Z,2.90
2018-02-12T06:44:43.549Z,3.57
2018-02-12T06:47:10.351Z,3.30
2018-02-12T06:49:37.016Z,3.17
2018-02-12T06:52:04.894Z,3.23
2018-02-12T06:54:34.978Z,3.47
2018-02-12T06:57:01.875Z,3.20
2018-02-12T06:59:29.724Z,3.00
2018-02-12T07:01:57.501Z,3.57
2018-02-12T07:04:24.263Z,3.40
2018-02-12T07:06:51.533Z,3.20
2018-02-12T07:09:18.825Z,3.50
2018-02-12T07:11:45.490Z,3.20
2018-02-12T07:14:18.761Z,3.47
2018-02-12T07:16:45.882Z,3.93
2018-02-12T07:19:15.889Z,4.20
2018-02-12T07:21:42.592Z,3.17
2018-02-12T07:24:14.022Z,3.40
2018-02-12T07:26:40.761Z,3.50
2018-02-12T07:29:08.114Z,3.70
2018-02-12T07:31:35.493Z,3.20
2018-02-12T07:34:03.761Z,3.90
2018-02-12T07:36:31.830Z,4.50
2018-02-12T07:38:58.530Z,3.70
2018-02-12T07:41:26.675Z,4.30
2018-02-12T07:43:53.412Z,3.50
2018-02-12T07:46:20.176Z,3.40
2018-02-12T07:48:47.018Z,3.43
2018-02-12T07:51:13.691Z,3.30
2018-02-12T07:53:41.335Z,3.80
2018-02-12T07:56:08.988Z,3.47
2018-02-12T07:58:36.768Z,3.30
2018-02-12T08:01:03.450Z,3.50
2018-02-12T08:03:31.904Z,3.43
2018-02-12T08:05:58.619Z,3.00
2018-02-12T08:08:25.790Z,3.77
2018-02-12T08:10:52.678Z,2.87
2018-02-12T08:13:19.397Z,3.07
2018-02-12T08:15:46.064Z,3.10
2018-02-12T08:18:12.800Z,2.87
2018-02-12T08:20:39.546Z,2.80
2018-02-12T08:23:06.296Z,2.93
2018-02-12T08:25:32.975Z,2.80
2018-02-12T08:27:59.641Z,2.47
2018-02-12T08:30:26.380Z,2.90
2018-02-12T08:32:53.073Z,2.60
2018-02-12T08:35:19.892Z,3.07
2018-02-12T08:37:46.637Z,2.30
2018-02-12T08:40:13.310Z,3.07
2018-02-12T08:42:40.003Z,2.80
2018-02-12T08:45:06.799Z,3.00
2018-02-12T08:47:33.468Z,2.80
2018-02-12T08:50:00.166Z,2.93
2018-02-12T08:52:26.884Z,2.23
2018-02-12T08:54:53.568Z,3.50
2018-02-12T08:57:20.247Z,2.57
2018-02-12T08:59:47.257Z,2.77
2018-02-12T09:02:13.968Z,3.57
2018-02-12T09:04:42.578Z,3.30
2018-02-12T09:07:09.426Z,2.60
2018-02-12T09:09:36.285Z,2.40
2018-02-12T09:12:03.079Z,2.50
2018-02-12T09:14:29.803Z,2.70
2018-02-12T09:16:56.789Z,2.57
2018-02-12T09:19:23.501Z,2.70
2018-02-12T09:21:50.320Z,2.80
2018-02-12T09:24:17.060Z,2.67
2018-02-12T09:26:45.162Z,2.60
2018-02-12T09:29:11.876Z,2.60
2018-02-12T09:31:38.641Z,2.60
2018-02-12T09:34:05.424Z,2.87
2018-02-12T09:36:32.211Z,2.83
2018-02-12T09:38:58.901Z,2.50
2018-02-12T09:41:25.585Z,3.03
2018-02-12T09:43:52.288Z,2.10
2018-02-12T09:46:19.133Z,2.90
2018-02-12T09:48:46.004Z,2.47
2018-02-12T09:51:12.688Z,2.73
2018-02-12T09:53:39.373Z,2.90
2018-02-12T09:56:06.344Z,2.90
2018-02-12T09:58:33.068Z,2.33
2018-02-12T10:00:59.749Z,2.63
2018-02-12T10:03:26.550Z,2.93
2018-02-12T10:05:53.588Z,2.63
2018-02-12T10:08:20.440Z,2.90
2018-02-12T10:10:47.543Z,3.07
2018-02-12T10:13:14.283Z,2.73
2018-02-12T10:15:41.788Z,3.00
2018-02-12T10:18:08.526Z,2.20
2018-02-12T10:20:36.099Z,2.50
2018-02-12T10:23:04.101Z,2.03
2018-02-12T10:25:31.321Z,2.60
2018-02-12T10:27:58.040Z,2.50
2018-02-12T10:30:24.769Z,2.40
2018-02-12T10:32:51.471Z,2.70
2018-02-12T10:35:18.189Z,2.50
2018-02-12T10:37:45.191Z,2.57
2018-02-12T10:40:12.121Z,2.73
2018-02-12T10:42:40.903Z,2.67
2018-02-12T10:45:07.636Z,2.53
2018-02-12T10:47:34.474Z,2.40
2018-02-12T10:50:01.154Z,3.20
2018-02-12T10:52:27.893Z,3.17
2018-02-12T10:54:55.121Z,2.33
2018-02-12T10:57:22.139Z,2.83
2018-02-12T10:59:48.846Z,2.60
2018-02-12T11:02:15.993Z,2.30
2018-02-12T11:04:42.659Z,2.30
2018-02-12T11:07:09.434Z,2.80
2018-02-12T11:09:36.137Z,2.53
2018-02-12T11:12:02.817Z,2.70
2018-02-12T11:14:29.735Z,2.60
2018-02-12T11:16:56.393Z,2.80
2018-02-12T11:19:23.081Z,2.57
2018-02-12T11:21:49.779Z,3.20
2018-02-12T11:24:16.546Z,2.87
2018-02-12T11:26:43.251Z,2.77
2018-02-12T11:29:09.976Z,4.77
2018-02-12T11:31:36.657Z,2.43
2018-02-12T11:34:03.370Z,3.00
2018-02-12T11:36:30.077Z,2.57
2018-02-12T11:38:56.755Z,2.17
2018-02-12T11:41:23.508Z,3.10
2018-02-12T11:43:50.266Z,2.07
2018-02-12T11:46:16.953Z,2.50
2018-02-12T11:48:44.330Z,2.47
2018-02-12T11:51:11.014Z,2.20
2018-02-12T11:53:39.545Z,2.37
2018-02-12T11:56:06.438Z,2.00
2018-02-12T11:58:33.182Z,2.60
2018-02-12T12:01:02.608Z,2.43
2018-02-12T12:03:29.433Z,2.90
2018-02-12T12:05:56.123Z,2.90
2018-02-12T12:08:23.050Z,2.80
2018-02-12T12:10:49.811Z,2.80
2018-02-12T12:13:16.498Z,2.97
2018-02-12T12:15:43.185Z,3.10
2018-02-12T12:18:09.976Z,2.80
2018-02-12T12:20:36.673Z,2.80
2018-02-12T12:23:03.348Z,2.33
2018-02-12T12:25:30.038Z,2.13
2018-02-12T12:27:57.869Z,2.20
2018-02-12T12:30:24.631Z,2.23
2018-02-12T12:32:51.305Z,2.60
2018-02-12T12:35:18.259Z,3.30
2018-02-12T12:37:44.925Z,3.33
2018-02-12T12:40:12.613Z,3.27
2018-02-12T12:42:40.473Z,2.87
2018-02-12T12:45:07.258Z,3.10
2018-02-12T12:47:34.236Z,3.47
2018-02-12T12:50:00.960Z,3.90
2018-02-12T12:52:27.898Z,3.50
2018-02-12T12:54:54.722Z,3.00
2018-02-12T12:57:21.411Z,3.87
2018-02-12T12:59:51.833Z,3.37
2018-02-12T13:02:18.677Z,3.33
2018-02-12T13:04:45.441Z,2.13
2018-02-12T13:07:12.186Z,2.73
2018-02-12T13:09:39.774Z,2.67
2018-02-12T13:12:06.670Z,3.00
2018-02-12T13:14:33.344Z,2.60
2018-02-12T13:17:00.919Z,3.47
2018-02-12T13:19:27.827Z,2.90
2018-02-12T13:21:54.728Z,2.70
2018-02-12T13:24:21.515Z,4.90
2018-02-12T13:26:48.221Z,3.50
2018-02-12T13:29:14.978Z,3.93
2018-02-12T13:31:41.764Z,4.13
2018-02-12T13:34:08.531Z,4.17
2018-02-12T13:36:35.368Z,3.63
2018-02-12T13:39:02.136Z,3.80
2018-02-12T13:41:28.868Z,4.20
2018-02-12T13:43:55.574Z,4.30
2018-02-12T13:46:22.261Z,3.10
2018-02-12T13:48:48.993Z,3.37
2018-02-12T13:51:15.699Z,3.13
2018-02-12T13:53:42.409Z,2.90
2018-02-12T13:56:09.649Z,2.17
2018-02-12T13:58:36.550Z,2.13
2018-02-12T14:01:03.297Z,2.20
2018-02-12T14:03:29.977Z,2.13
2018-02-12T14:05:57.944Z,2.90
2018-02-12T14:08:24.887Z,2.60
2018-02-12T14:10:51.561Z,2.97
2018-02-12T14:13:18.288Z,2.70
2018-02-12T14:15:45.993Z,2.60
2018-02-12T14:18:12.825Z,2.20
2018-02-12T14:20:39.567Z,3.00
2018-02-12T14:23:06.301Z,3.10
2018-02-12T14:25:33.065Z,3.00
2018-02-12T14:27:59.796Z,2.73
2018-02-12T14:30:27.427Z,2.77
2018-02-12T14:32:54.166Z,3.03
2018-02-12T14:35:20.980Z,2.50
2018-02-12T14:37:47.861Z,2.47
2018-02-12T14:40:14.542Z,2.63
2018-02-12T14:42:41.408Z,2.53
2018-02-12T14:45:08.197Z,2.67
2018-02-12T14:47:34.947Z,3.00
2018-02-12T14:50:01.679Z,3.30
2018-02-12T14:52:28.386Z,3.07
2018-02-12T14:54:55.459Z,3.27
2018-02-12T14:57:22.208Z,2.90
2018-02-12T14:59:48.955Z,3.30
2018-02-12T15:02:15.668Z,2.53
2018-02-12T15:04:42.384Z,2.50
2018-02-12T15:07:09.090Z,2.60
2018-02-12T15:09:35.754Z,2.83
2018-02-12T15:12:02.494Z,2.70
2018-02-12T15:14:29.330Z,2.60
2018-02-12T15:16:56.053Z,2.77
2018-02-12T15:19:22.858Z,2.87
2018-02-12T15:21:49.865Z,2.20
2018-02-12T15:24:16.623Z,2.57
2018-02-12T15:26:43.300Z,2.30
2018-02-12T15:29:10.013Z,2.57
2018-02-12T15:31:36.719Z,2.50
2018-02-12T15:34:03.527Z,2.10
2018-02-12T15:36:30.359Z,1.90
2018-02-12T15:38:57.103Z,1.90
2018-02-12T15:41:23.842Z,2.00
2018-02-12T15:43:50.649Z,2.17
2018-02-12T15:46:17.328Z,2.30
2018-02-12T15:48:44.050Z,2.27
2018-02-12T15:51:10.784Z,3.10
2018-02-12T15:53:37.501Z,2.53
2018-02-12T15:56:04.225Z,2.97
2018-02-12T15:58:30.925Z,3.10
2018-02-12T16:00:57.605Z,3.80
2018-02-12T16:03:24.348Z,2.87
2018-02-12T16:05:51.237Z,3.43
2018-02-12T16:08:17.911Z,3.60
2018-02-12T16:10:44.727Z,3.43
2018-02-12T16:13:11.465Z,3.00
2018-02-12T16:15:38.178Z,3.97
2018-02-12T16:18:04.926Z,4.30
2018-02-12T16:20:31.978Z,3.27
2018-02-12T16:22:58.650Z,3.47
2018-02-12T16:25:25.370Z,3.33
2018-02-12T16:27:52.228Z,3.53
2018-02-12T16:30:18.897Z,3.50
2018-02-12T16:32:45.567Z,3.30
2018-02-12T16:35:12.505Z,3.70
2018-02-12T16:37:39.256Z,3.40
2018-02-12T16:40:06.097Z,3.37
2018-02-12T16:42:32.978Z,3.70
2018-02-12T16:44:59.731Z,3.20
2018-02-12T16:47:26.390Z,3.40
2018-02-12T16:49:53.382Z,3.47
2018-02-12T16:52:20.272Z,3.10
2018-02-12T16:54:47.022Z,3.43
2018-02-12T16:57:13.726Z,3.33
2018-02-12T16:59:40.580Z,2.80
2018-02-12T17:02:07.314Z,2.97
2018-02-12T17:04:34.000Z,2.90
2018-02-12T17:07:00.701Z,3.27
2018-02-12T17:09:27.408Z,3.30
2018-02-12T17:11:54.465Z,3.03
2018-02-12T17:14:21.148Z,2.60
2018-02-12T17:16:47.867Z,3.50
2018-02-12T17:19:14.581Z,3.60
2018-02-12T17:21:41.245Z,3.03
2018-02-12T17:24:08.056Z,3.40
2018-02-12T17:26:34.774Z,3.40
2018-02-12T17:29:01.578Z,4.20
2018-02-12T17:31:28.301Z,3.20
2018-02-12T17:33:55.132Z,3.20
2018-02-12T17:36:21.882Z,4.10
2018-02-12T17:38:48.592Z,4.43
2018-02-12T17:41:15.998Z,4.60
2018-02-12T17:43:42.964Z,4.30
2018-02-12T17:46:10.125Z,4.27
2018-02-12T17:48:36.898Z,5.23
2018-02-12T17:51:03.600Z,4.60
2018-02-12T17:53:30.389Z,3.67
2018-02-12T17:55:57.415Z,4.87
2018-02-12T17:58:24.101Z,4.50
2018-02-12T18:00:50.932Z,3.80
2018-02-12T18:03:17.698Z,4.40
2018-02-12T18:05:44.458Z,4.30
2018-02-12T18:08:11.234Z,4.07
2018-02-12T18:10:38.807Z,4.57
2018-02-12T18:13:06.106Z,3.70
2018-02-12T18:15:32.958Z,4.50
2018-02-12T18:17:59.825Z,4.40
2018-02-12T18:20:26.514Z,4.70
2018-02-12T18:22:53.386Z,4.97
2018-02-12T18:25:20.292Z,4.60
2018-02-12T18:27:47.185Z,4.37
2018-02-12T18:30:14.078Z,4.87
2018-02-12T18:32:41.917Z,5.10
2018-02-12T18:35:08.830Z,5.33
2018-02-12T18:37:36.628Z,6.27
2018-02-12T18:40:03.292Z,5.13
2018-02-12T18:42:30.068Z,4.60
2018-02-12T18:44:56.770Z,4.40
2018-02-12T18:47:23.458Z,4.40
2018-02-12T18:49:50.193Z,3.93
2018-02-12T18:52:16.942Z,3.77
2018-02-12T18:54:43.642Z,3.60
2018-02-12T18:57:10.521Z,3.93
2018-02-12T18:59:37.262Z,4.70
2018-02-12T19:02:03.982Z,3.27
2018-02-12T19:04:30.846Z,4.57
2018-02-12T19:06:57.539Z,4.13
2018-02-12T19:09:24.270Z,4.30
2018-02-12T19:11:51.681Z,4.77
2018-02-12T19:14:18.516Z,4.30
2018-02-12T19:16:45.206Z,4.40
2018-02-12T19:19:11.875Z,6.20
2018-02-12T19:21:38.578Z,4.60
2018-02-12T19:24:05.255Z,4.40
2018-02-12T19:26:32.020Z,5.07
2018-02-12T19:28:59.154Z,5.00
2018-02-12T19:31:25.859Z,5.90
2018-02-12T19:33:52.570Z,5.77
2018-02-12T19:36:19.253Z,5.57
2018-02-12T19:38:46.907Z,5.70
2018-02-12T19:41:13.605Z,5.20
2018-02-12T19:43:40.404Z,6.40
2018-02-12T19:46:07.132Z,6.10
2018-02-12T19:48:33.833Z,6.03
2018-02-12T19:51:00.551Z,5.27
2018-02-12T19:53:27.273Z,6.00
2018-02-12T19:55:53.991Z,6.33
2018-02-12T19:58:20.764Z,6.40
2018-02-12T20:00:47.520Z,6.53
2018-02-12T20:03:14.246Z,6.70
2018-02-12T20:05:41.099Z,7.83
2018-02-12T20:08:08.687Z,6.20
2018-02-12T20:10:35.395Z,6.07
2018-02-12T20:13:02.139Z,6.00
2018-02-12T20:15:28.921Z,6.63
2018-02-12T20:17:55.748Z,5.87
2018-02-12T20:20:22.444Z,6.20
2018-02-12T20:22:49.166Z,6.57
2018-02-12T20:25:16.108Z,5.90
2018-02-12T20:27:42.837Z,5.63
2018-02-12T20:30:14.887Z,5.73
2018-02-12T20:32:41.588Z,5.83
2018-02-12T20:35:08.414Z,5.50
2018-02-12T20:37:35.103Z,5.80
2018-02-12T20:40:01.924Z,6.10
2018-02-12T20:42:28.679Z,5.77
2018-02-12T20:44:55.349Z,5.90
2018-02-12T20:47:22.125Z,5.90
2018-02-12T20:49:49.624Z,6.60
2018-02-12T20:52:20.436Z,5.87
2018-02-12T20:54:47.173Z,6.07
2018-02-12T20:57:13.853Z,6.70
2018-02-12T20:59:40.559Z,6.50
2018-02-12T21:02:07.235Z,5.80
2018-02-12T21:04:33.973Z,6.17
2018-02-12T21:07:00.721Z,6.60
2018-02-12T21:09:27.461Z,6.07
2018-02-12T21:11:54.219Z,6.50
2018-02-12T21:14:24.805Z,6.90
2018-02-12T21:16:51.563Z,7.13
2018-02-12T21:19:18.348Z,6.10
2018-02-12T21:21:45.195Z,5.70
2018-02-12T21:24:11.939Z,6.67
2018-02-12T21:26:38.670Z,6.20
2018-02-12T21:29:06.278Z,6.37
2018-02-12T21:31:32.976Z,7.07
2018-02-12T21:33:59.695Z,6.00
2018-02-12T21:36:26.414Z,5.40
2018-02-12T21:38:53.170Z,6.20
2018-02-12T21:41:19.918Z,5.90
2018-02-12T21:43:53.193Z,5.43
2018-02-12T21:46:24.287Z,5.20
2018-02-12T21:48:51.029Z,5.73
2018-02-12T21:51:22.126Z,5.90
2018-02-12T21:53:52.553Z,5.87
2018-02-12T21:56:19.828Z,5.63
2018-02-12T21:58:46.614Z,5.13
2018-02-12T22:01:13.311Z,5.77
2018-02-12T22:03:40.007Z,6.10
2018-02-12T22:06:06.982Z,5.90
2018-02-12T22:08:33.785Z,5.87
2018-02-12T22:11:00.817Z,5.77
2018-02-12T22:13:27.951Z,6.30
2018-02-12T22:15:55.098Z,6.10
2018-02-12T22:18:21.880Z,6.07
2018-02-12T22:20:48.982Z,5.70
2018-02-12T22:23:15.750Z,5.97
2018-02-12T22:25:42.534Z,5.53
2018-02-12T22:28:09.527Z,5.97
2018-02-12T22:30:36.318Z,5.17
2018-02-12T22:33:03.157Z,6.10
2018-02-12T22:35:29.884Z,5.87
2018-02-12T22:37:57.521Z,5.57
2018-02-12T22:40:26.099Z,4.67
2018-02-12T22:42:53.509Z,5.20
2018-02-12T22:45:20.540Z,5.50
2018-02-12T22:47:48.015Z,5.40
2018-02-12T22:50:15.176Z,4.93
2018-02-12T22:52:41.935Z,5.00
2018-02-12T22:55:10.548Z,5.50
2018-02-12T22:57:37.690Z,5.53
2018-02-12T23:00:04.657Z,6.23
2018-02-12T23:02:32.186Z,5.57
2018-02-12T23:04:59.531Z,5.60
2018-02-12T23:07:26.577Z,5.93
2018-02-12T23:09:53.410Z,6.83
2018-02-12T23:12:20.116Z,6.50
2018-02-12T23:14:46.792Z,5.80
2018-02-12T23:17:13.669Z,5.70
2018-02-12T23:19:40.451Z,6.20
2018-02-12T23:22:07.118Z,5.27
2018-02-12T23:24:33.799Z,5.53
2018-02-12T23:27:00.520Z,5.23
2018-02-12T23:29:27.241Z,4.80
2018-02-12T23:31:53.957Z,5.43
2018-02-12T23:34:21.229Z,5.90
2018-02-12T23:36:48.948Z,5.63
2018-02-12T23:39:16.093Z,6.13
2018-02-12T23:41:43.195Z,5.37
2018-02-12T23:44:15.061Z,5.97
2018-02-12T23:46:44.454Z,5.37
2018-02-12T23:49:12.987Z,5.60
2018-02-12T23:51:39.891Z,6.30
2018-02-12T23:54:06.634Z,5.60
2018-02-12T23:56:33.421Z,5.70
2018-02-12T23:59:00.106Z,5.10
